»·PEaware :: N3379D KLAX-KSAN

N3379D :: KLAX-KSAN

FLIGHT INFORMATION

Flight Status: Arrived
Operator: Privately registered:
United States
More flights under this callsign
Pilot: Jason D. (24728)
Aircraft: PIPER PA-28R-201 ARROW
(P28R)
More flights by this aircraft type
Origin: KLAX Los Angeles Intl
United States
Destination: KSAN San Diego Intl-Lindbergh
United States
More flights between these airports :: More routes between these airports
Route:
File this flight plan on PilotEdge
Remarks:
Altitude:
(Current/Filed)
5,500ft
Speed:
(Current/Filed)
130kts
Departed: 30-Mar-21 11:04 AM
Arrived: 30-Mar-21 11:56 AM
Distance/Time
Traveled:
6795nm/0:52
Distance/Time
To Go:
Arrived

Flight Plot

Page will automatically refresh every two minutes.


Map Options




Map Legend


Flown Route
Filed Route
Departure Airport
Arrival Airport
Navaid (VOR, NDB)
Fix

Horizontal Profiles

Position Reports

Time Latitude Longitude Heading Altitude Ground
Speed
30-Mar-21 10:54 33.933839 -118.394463 84 119ft 0kts
30-Mar-21 10:55 33.933839 -118.394463 84 119ft 0kts
30-Mar-21 10:56 33.933839 -118.394463 84 119ft 0kts
30-Mar-21 10:57 33.933839 -118.394463 84 119ft 0kts
30-Mar-21 10:58 33.933846 -118.394383 83 119ft 5kts
30-Mar-21 10:59 33.935264 -118.391252 83 119ft 23kts
30-Mar-21 11:00 33.935972 -118.384375 83 119ft 18kts
30-Mar-21 11:01 33.936414 -118.382801 16 119ft 3kts
30-Mar-21 11:01 33.938572 -118.383078 352 119ft 0kts
30-Mar-21 11:03 33.939208 -118.383180 348 119ft 10kts
30-Mar-21 11:04 33.937722 -118.403443 263 649ft 97kts
30-Mar-21 11:05 33.931751 -118.437737 242 1886ft 110kts
30-Mar-21 11:06 33.901432 -118.427130 146 2402ft 142kts
30-Mar-21 11:06 33.873713 -118.406451 136 2596ft 135kts
30-Mar-21 11:07 33.852224 -118.371787 116 3339ft 128kts
30-Mar-21 11:08 33.835128 -118.332074 112 3517ft 139kts
30-Mar-21 11:10 33.812151 -118.286282 158 3486ft 142kts
30-Mar-21 11:11 33.774650 -118.272272 147 3492ft 141kts
30-Mar-21 11:11 33.748407 -118.251258 141 3490ft 132kts
30-Mar-21 11:12 33.718955 -118.225510 139 3521ft 128kts
30-Mar-21 11:13 33.692914 -118.201942 140 4289ft 112kts
30-Mar-21 11:14 33.663538 -118.185339 148 5167ft 120kts
30-Mar-21 11:15 33.637317 -118.158265 111 5494ft 132kts
30-Mar-21 11:16 33.615119 -118.122866 129 5492ft 135kts
30-Mar-21 11:17 33.587902 -118.091845 140 5492ft 136kts
30-Mar-21 11:18 33.557114 -118.065201 140 5483ft 136kts
30-Mar-21 11:20 33.521388 -118.033992 140 5482ft 135kts
30-Mar-21 11:20 33.496070 -118.011693 140 5482ft 135kts
30-Mar-21 11:21 33.469271 -117.981074 117 5491ft 132kts
30-Mar-21 11:22 33.451991 -117.942133 114 5491ft 132kts
30-Mar-21 11:23 33.435292 -117.902900 114 5491ft 132kts
30-Mar-21 11:24 33.418521 -117.863448 114 5492ft 132kts
30-Mar-21 11:25 33.401208 -117.824593 119 5492ft 133kts
30-Mar-21 11:26 33.381247 -117.787277 120 5500ft 133kts
30-Mar-21 11:27 33.361149 -117.750199 120 5501ft 133kts
30-Mar-21 11:28 33.341047 -117.713179 120 5501ft 133kts
30-Mar-21 11:29 33.321035 -117.676010 120 5501ft 133kts
30-Mar-21 11:30 33.301127 -117.638844 120 5501ft 132kts
30-Mar-21 11:31 33.281235 -117.601708 120 5501ft 132kts
30-Mar-21 11:32 33.258899 -117.566610 132 5501ft 133kts
30-Mar-21 11:33 33.233889 -117.535556 129 5500ft 125kts
30-Mar-21 11:34 33.215393 -117.505964 118 4647ft 102kts
30-Mar-21 11:35 33.202829 -117.475859 113 3956ft 102kts
30-Mar-21 11:36 33.191859 -117.444722 111 3511ft 99kts
30-Mar-21 11:37 33.174785 -117.417708 128 3597ft 114kts
30-Mar-21 11:38 33.148553 -117.387241 137 3587ft 137kts
30-Mar-21 11:39 33.118635 -117.358821 143 3590ft 137kts
30-Mar-21 11:40 33.086753 -117.335870 149 3591ft 132kts
30-Mar-21 11:41 33.054627 -117.315979 154 3592ft 129kts
30-Mar-21 11:42 33.021627 -117.299522 156 3591ft 127kts
30-Mar-21 11:43 32.988482 -117.285465 160 3592ft 127kts
30-Mar-21 11:44 32.954180 -117.274493 165 3592ft 127kts
30-Mar-21 11:45 32.920111 -117.265000 165 3590ft 122kts
30-Mar-21 11:46 32.888181 -117.256229 165 3592ft 115kts
30-Mar-21 11:47 32.860613 -117.246560 158 3489ft 101kts
30-Mar-21 11:48 32.834108 -117.232667 154 3565ft 106kts
30-Mar-21 11:49 32.805978 -117.222798 163 2740ft 104kts
30-Mar-21 11:50 32.778456 -117.212353 157 1787ft 99kts
30-Mar-21 11:51 32.757782 -117.194537 113 1095ft 102kts
30-Mar-21 11:52 32.749775 -117.162164 99 1015ft 103kts
30-Mar-21 11:53 32.732994 -117.150672 205 767ft 85kts
30-Mar-21 11:54 32.730122 -117.175486 281 142ft 75kts
30-Mar-21 11:55 32.732528 -117.188606 203 19ft 0kts
30-Mar-21 11:56 32.732528 -117.188606 203 19ft 0kts
30-Mar-21 11:57 32.732114 -117.190658 200 19ft 15kts
30-Mar-21 11:59 0.000000 0.000000 0 0ft 0kts

Navigation Log

Ident Type
Flight plan parsing failed, navigation log unavailable